Addis, Louisiana
Current Conditions -  °F | °C
As of 12:53 PM on Thursday 23 Oct 2014 (Local Time) from KBTR Reporting Station
Clear Clear  
Wind Chill: 73°   Ceiling: Unl
Heat Index: 73°   Visibility: 10mi
Dew Point: 45°   Wind: 8mph
Humidity: 37%   Direction: 20°NNE
Pressure: 30.1"   Gusts: NA
Location:  30.35°N, 91.27°W
Report Text: KBTR 231753Z 02007KT 350V060 10SM CLR 23/07 A3010 RMK AO2 SLP191 T02280072 10228 20094 56016
Loading
Personal Weather Stations






























Interactive Weather Map
Tropical Storm Tracking
New forecast layout! Learn more

10-Day Weather Forecast

Advertisements
Track Severe Weather on mobile